Time;durP1;ratioP1;P1;durP2;ratioP2;P2;SDS_P1;SDS_P2;PMS_P1;PMS_P2;Temp;Humidity;BMP_temperature;BMP_pressure;BME280_temperature;BME280_humidity;BME280_pressure;Samples;Min_cycle;Max_cycle;Signal;HPM_P1;HPM_P2
2023/08/22 00:00:09;;;;;;;5.63;3.65;;;;;;;25.78;56.93;100603.63;10400986;28;20330;-72
2023/08/22 00:05:11;;;;;;;6.22;4.03;;;;;;;25.71;57.19;100603.88;10405047;28;20082;-73
2023/08/22 00:10:13;;;;;;;4.43;3.45;;;;;;;25.61;57.50;100598.34;10405714;28;20461;-71
2023/08/22 00:15:14;;;;;;;5.85;3.83;;;;;;;25.52;57.41;100601.63;10401630;28;20116;-72
2023/08/22 00:20:16;;;;;;;4.75;3.65;;;;;;;25.45;57.95;100606.53;10402531;28;20404;-73
2023/08/22 00:25:18;;;;;;;6.72;3.63;;;;;;;25.40;58.41;100603.78;10403327;28;20049;-72
2023/08/22 00:30:22;;;;;;;6.10;4.43;;;;;;;25.32;58.60;100602.38;10403618;28;20456;-72
2023/08/22 00:35:25;;;;;;;5.03;4.13;;;;;;;25.28;58.80;100589.41;10398847;28;20120;-73
2023/08/22 00:40:26;;;;;;;4.70;4.10;;;;;;;25.19;58.99;100588.22;10401687;28;20034;-74
2023/08/22 00:45:28;;;;;;;3.75;2.78;;;;;;;25.13;59.39;100599.19;10405710;28;20069;-72
2023/08/22 00:50:29;;;;;;;4.53;3.83;;;;;;;25.01;59.31;100587.59;10403874;28;20117;-74
2023/08/22 00:55:31;;;;;;;7.30;4.03;;;;;;;24.96;59.76;100581.22;10407303;28;20440;-72
2023/08/22 01:00:32;;;;;;;4.80;4.18;;;;;;;24.91;59.78;100595.78;10403091;28;20120;-71
2023/08/22 01:05:38;;;;;;;7.20;3.88;;;;;;;24.84;60.17;100589.69;10402696;28;20046;-70
2023/08/22 01:10:46;;;;;;;6.53;4.18;;;;;;;24.79;60.04;100575.91;10400927;28;20033;-73
2023/08/22 01:15:49;;;;;;;8.73;3.97;;;;;;;24.68;60.39;100569.50;10407733;28;20075;-72
2023/08/22 01:20:51;;;;;;;6.47;4.07;;;;;;;24.60;60.93;100564.50;10395014;28;20056;-73
2023/08/22 01:25:52;;;;;;;4.50;3.88;;;;;;;24.53;61.05;100560.06;10404260;28;20061;-73
2023/08/22 01:31:33;;;;;;;7.57;4.18;;;;;;;24.44;61.07;100552.53;10399056;28;20132;-72
2023/08/22 01:36:36;;;;;;;6.85;4.05;;;;;;;24.39;60.94;100552.50;10402300;28;20498;-73
2023/08/22 01:41:38;;;;;;;5.35;4.03;;;;;;;24.33;61.47;100546.97;10399463;28;20095;-71
2023/08/22 01:46:39;;;;;;;5.13;3.78;;;;;;;24.24;61.43;100551.28;10402872;28;20061;-73
2023/08/22 01:51:41;;;;;;;8.32;4.47;;;;;;;24.13;61.79;100558.63;10397594;28;20056;-71
2023/08/22 01:56:42;;;;;;;11.88;4.38;;;;;;;24.09;61.88;100557.50;10393352;28;20149;-73
2023/08/22 02:01:44;;;;;;;10.85;4.18;;;;;;;24.08;61.97;100555.00;10396258;28;20113;-72
2023/08/22 02:06:46;;;;;;;7.03;4.40;;;;;;;24.00;62.53;100563.72;10401398;28;20052;-72
2023/08/22 02:11:47;;;;;;;11.48;4.28;;;;;;;23.94;62.27;100569.16;10412444;28;20113;-72
2023/08/22 02:16:49;;;;;;;6.32;4.28;;;;;;;23.95;62.89;100562.59;10407173;28;20053;-74
2023/08/22 02:21:50;;;;;;;7.65;3.78;;;;;;;24.01;62.91;100557.94;10407066;28;20250;-74
2023/08/22 02:26:52;;;;;;;6.15;4.30;;;;;;;24.05;62.80;100556.38;10404689;28;20064;-74
2023/08/22 02:31:53;;;;;;;8.43;5.00;;;;;;;24.05;62.55;100569.25;10406806;28;20076;-74
2023/08/22 02:36:54;;;;;;;7.68;4.13;;;;;;;24.00;62.85;100569.22;10412729;28;20128;-73
2023/08/22 02:41:56;;;;;;;6.43;4.50;;;;;;;24.03;62.71;100576.91;10405362;28;20052;-76
2023/08/22 02:46:58;;;;;;;5.40;3.90;;;;;;;24.06;63.03;100566.25;10407604;28;20048;-73
2023/08/22 02:51:59;;;;;;;6.93;4.05;;;;;;;24.04;63.08;100571.16;10404687;28;20057;-70
2023/08/22 02:57:00;;;;;;;9.90;4.25;;;;;;;24.05;62.74;100575.59;10406555;28;20050;-74
2023/08/22 03:02:03;;;;;;;9.40;4.93;;;;;;;23.97;63.10;100576.03;10405723;28;20056;-73
2023/08/22 03:07:05;;;;;;;5.25;4.13;;;;;;;23.89;63.44;100568.28;10406738;28;20064;-74
2023/08/22 03:12:06;;;;;;;4.90;4.25;;;;;;;23.86;63.30;100577.84;10407966;28;20049;-76
2023/08/22 03:17:08;;;;;;;7.65;4.93;;;;;;;23.77;63.82;100579.38;10406200;28;20041;-74
2023/08/22 03:22:09;;;;;;;6.25;5.30;;;;;;;23.71;63.73;100574.91;10407574;28;20042;-72
2023/08/22 03:27:11;;;;;;;5.53;4.25;;;;;;;23.69;63.61;100572.41;10406598;28;20620;-74
2023/08/22 03:32:12;;;;;;;5.90;4.30;;;;;;;23.65;63.88;100563.06;10403148;28;20037;-72
2023/08/22 03:37:13;;;;;;;5.03;3.92;;;;;;;23.63;63.43;100572.63;10403250;28;20045;-73
2023/08/22 03:42:15;;;;;;;9.10;4.97;;;;;;;23.58;64.07;100562.44;10404042;28;20121;-71
2023/08/22 03:47:16;;;;;;;7.72;4.40;;;;;;;23.52;63.81;100563.47;10409696;28;20055;-72
2023/08/22 03:52:17;;;;;;;5.78;4.68;;;;;;;23.49;63.90;100562.06;10399176;28;20113;-72
2023/08/22 03:57:19;;;;;;;5.65;4.63;;;;;;;23.43;64.08;100560.34;10403025;28;20404;-73
2023/08/22 04:02:20;;;;;;;6.43;5.60;;;;;;;23.39;64.26;100555.63;10395374;28;20098;-73
2023/08/22 04:07:22;;;;;;;9.00;5.68;;;;;;;23.32;64.52;100569.53;10403864;28;20064;-74
2023/08/22 04:12:23;;;;;;;11.43;4.93;;;;;;;23.24;64.47;100572.72;10405325;28;20125;-73
2023/08/22 04:17:25;;;;;;;7.78;5.15;;;;;;;23.21;64.70;100570.50;10405633;28;20063;-74
2023/08/22 04:22:26;;;;;;;11.30;4.43;;;;;;;23.14;64.63;100566.03;10404456;28;20080;-73
2023/08/22 04:27:28;;;;;;;7.70;4.68;;;;;;;23.10;64.77;100569.50;10402940;28;20052;-71
2023/08/22 04:32:30;;;;;;;5.63;5.00;;;;;;;23.06;64.87;100579.34;10399805;28;20033;-71
2023/08/22 04:37:31;;;;;;;7.13;4.60;;;;;;;23.04;64.75;100581.50;10402333;28;20046;-71
2023/08/22 04:42:34;;;;;;;9.13;4.95;;;;;;;22.94;65.02;100582.97;10404444;28;20053;-71
2023/08/22 04:47:35;;;;;;;11.35;4.50;;;;;;;22.92;64.93;100587.88;10400386;28;20071;-70
2023/08/22 04:52:37;;;;;;;6.70;4.68;;;;;;;22.91;64.98;100588.16;10398323;28;20046;-71
2023/08/22 04:57:38;;;;;;;9.00;4.95;;;;;;;22.94;65.03;100580.25;10397703;28;20116;-71
2023/08/22 05:02:40;;;;;;;7.93;5.28;;;;;;;22.98;65.04;100583.31;10399556;28;20167;-72
2023/08/22 05:07:42;;;;;;;5.63;4.93;;;;;;;22.99;65.11;100586.91;10403849;28;20041;-71
2023/08/22 05:12:44;;;;;;;7.55;5.57;;;;;;;23.01;65.17;100587.47;10405704;28;20065;-72
2023/08/22 05:17:45;;;;;;;11.25;5.20;;;;;;;23.08;65.11;100588.97;10402262;28;20238;-71
2023/08/22 05:22:47;;;;;;;9.25;4.70;;;;;;;23.13;65.12;100590.97;10395692;28;20075;-72
2023/08/22 05:27:48;;;;;;;7.97;4.78;;;;;;;23.21;65.10;100586.97;10401477;28;20108;-71
2023/08/22 05:32:50;;;;;;;9.60;4.55;;;;;;;23.32;65.07;100599.69;10401393;28;20438;-72
2023/08/22 05:37:51;;;;;;;9.45;4.13;;;;;;;23.41;65.29;100605.59;10402061;28;20050;-69
2023/08/22 05:42:53;;;;;;;8.73;4.85;;;;;;;23.46;64.69;100603.75;10405202;28;20121;-72
2023/08/22 05:47:54;;;;;;;9.15;4.47;;;;;;;23.53;64.46;100609.84;10401296;28;20052;-72
2023/08/22 05:52:55;;;;;;;5.40;4.75;;;;;;;23.55;64.69;100601.34;10409209;28;20421;-71
2023/08/22 05:57:57;;;;;;;9.10;4.93;;;;;;;23.73;64.09;100611.16;10409410;28;20394;-72
2023/08/22 06:02:59;;;;;;;7.18;4.53;;;;;;;23.81;64.56;100618.97;10413384;28;20122;-72
2023/08/22 06:08:00;;;;;;;5.72;4.20;;;;;;;23.95;64.35;100613.91;10407755;28;20103;-72
2023/08/22 06:13:02;;;;;;;7.60;4.57;;;;;;;24.05;64.03;100604.94;10405215;28;20112;-68
2023/08/22 06:18:05;;;;;;;7.32;4.80;;;;;;;24.10;63.98;100610.50;10407726;28;20342;-72
2023/08/22 06:23:07;;;;;;;7.60;4.47;;;;;;;24.21;63.74;100616.91;10406004;28;20049;-72
2023/08/22 06:28:08;;;;;;;9.95;5.18;;;;;;;24.33;63.73;100610.16;10410170;28;20444;-72
2023/08/22 06:33:09;;;;;;;7.25;4.43;;;;;;;24.31;63.87;100611.53;10411062;28;20270;-72
2023/08/22 06:38:11;;;;;;;7.60;4.88;;;;;;;24.37;63.82;100615.97;10411378;28;20049;-73
2023/08/22 06:43:14;;;;;;;8.73;4.70;;;;;;;24.40;63.64;100611.88;10405487;28;20076;-73
2023/08/22 06:48:16;;;;;;;10.45;4.60;;;;;;;24.55;63.49;100614.78;10403697;28;20117;-73
2023/08/22 06:53:35;;;;;;;11.30;4.05;;;;;;;24.70;62.64;100614.06;10404740;28;20041;-72
2023/08/22 06:58:37;;;;;;;4.68;3.85;;;;;;;24.96;62.59;100614.22;10409014;28;20042;-72
2023/08/22 07:03:38;;;;;;;4.05;3.58;;;;;;;25.12;61.94;100627.81;10405177;28;20113;-72
2023/08/22 07:08:40;;;;;;;5.20;3.40;;;;;;;25.27;61.77;100616.09;10406500;28;20049;-72
2023/08/22 07:13:41;;;;;;;6.13;3.55;;;;;;;25.44;62.11;100626.09;10404930;28;20334;-72
2023/08/22 07:18:42;;;;;;;7.18;4.65;;;;;;;25.61;61.21;100625.88;10402817;28;20149;-73
2023/08/22 07:23:44;;;;;;;7.45;4.32;;;;;;;25.65;60.43;100632.50;10406628;28;20109;-73
2023/08/22 07:28:45;;;;;;;8.98;4.00;;;;;;;25.84;60.44;100636.41;10410706;28;20095;-73
2023/08/22 07:33:46;;;;;;;8.13;3.42;;;;;;;26.02;60.27;100637.03;10407849;28;20249;-72
2023/08/22 07:38:48;;;;;;;6.57;3.35;;;;;;;26.23;59.54;100633.22;10402507;28;20069;-73
2023/08/22 07:43:49;;;;;;;6.20;3.35;;;;;;;26.23;59.23;100632.41;10407473;28;20045;-73
2023/08/22 07:48:51;;;;;;;4.95;3.80;;;;;;;26.22;59.37;100630.75;10406081;28;20045;-73
2023/08/22 07:53:53;;;;;;;7.32;3.35;;;;;;;26.48;58.99;100628.81;10405659;28;20152;-74
2023/08/22 07:58:54;;;;;;;6.15;3.70;;;;;;;26.79;58.21;100631.59;10408839;28;20061;-72
2023/08/22 08:03:55;;;;;;;7.55;3.35;;;;;;;26.99;57.67;100637.09;10408157;28;20112;-74
2023/08/22 08:08:57;;;;;;;4.80;3.25;;;;;;;27.12;57.84;100637.63;10404116;28;20049;-75
2023/08/22 08:13:58;;;;;;;7.88;3.38;;;;;;;27.38;56.85;100652.22;10403967;28;20331;-74
2023/08/22 08:19:00;;;;;;;8.55;3.60;;;;;;;27.58;56.78;100638.31;10399428;28;20429;-74
2023/08/22 08:24:04;;;;;;;7.00;3.25;;;;;;;27.82;56.16;100634.88;10407726;28;20055;-74
2023/08/22 08:29:05;;;;;;;4.88;3.45;;;;;;;27.98;55.69;100642.03;10403807;28;20073;-73
2023/08/22 08:34:07;;;;;;;7.32;3.58;;;;;;;27.97;55.40;100634.03;10404923;28;20065;-74
2023/08/22 08:39:08;;;;;;;8.00;3.30;;;;;;;28.20;54.83;100632.47;10404779;28;20061;-73
2023/08/22 08:44:11;;;;;;;4.45;3.25;;;;;;;28.25;54.46;100632.44;10405213;28;20053;-74
2023/08/22 08:49:15;;;;;;;4.95;3.28;;;;;;;28.13;54.27;100630.03;10401821;28;20129;-74
2023/08/22 08:54:17;;;;;;;5.35;3.60;;;;;;;28.19;54.14;100631.66;10403603;28;20241;-77
2023/08/22 08:59:18;;;;;;;3.15;2.40;;;;;;;28.53;53.20;100636.41;10403119;28;20076;-72
2023/08/22 09:04:19;;;;;;;5.20;2.70;;;;;;;28.58;53.38;100647.44;10396668;28;20440;-73
2023/08/22 09:09:21;;;;;;;8.00;3.10;;;;;;;28.62;52.90;100626.38;10406668;28;20046;-74
2023/08/22 09:14:22;;;;;;;9.95;2.67;;;;;;;28.93;51.92;100628.84;10402982;28;20077;-74
2023/08/22 09:19:24;;;;;;;8.13;2.60;;;;;;;29.26;51.95;100635.41;10400518;28;20058;-74
2023/08/22 09:24:27;;;;;;;6.57;3.20;;;;;;;29.38;51.17;100632.25;10406497;28;20121;-75
2023/08/22 09:29:30;;;;;;;7.50;2.67;;;;;;;29.80;50.91;100632.56;10401456;28;20090;-75
2023/08/22 09:34:32;;;;;;;7.20;2.30;;;;;;;29.92;50.51;100624.66;10404088;28;20298;-74
2023/08/22 09:39:36;;;;;;;3.53;2.08;;;;;;;30.39;49.80;100627.56;10399079;28;20116;-74
2023/08/22 09:44:38;;;;;;;5.38;1.90;;;;;;;30.54;48.75;100641.19;10401364;28;20110;-74
2023/08/22 09:49:40;;;;;;;4.22;2.53;;;;;;;30.42;48.55;100627.78;10398741;28;20113;-74
2023/08/22 09:54:43;;;;;;;6.93;2.60;;;;;;;30.63;48.18;100644.91;10402974;28;20053;-75
2023/08/22 09:59:48;;;;;;;4.80;2.30;;;;;;;30.62;47.39;100640.47;10399556;28;20709;-75
2023/08/22 10:04:49;;;;;;;3.60;1.63;;;;;;;30.51;46.92;100640.94;10399819;28;20117;-75
2023/08/22 10:09:51;;;;;;;4.07;2.58;;;;;;;30.57;46.56;100634.19;10395443;28;20046;-73
2023/08/22 10:14:56;;;;;;;7.32;1.92;;;;;;;30.51;46.65;100632.63;10404861;28;20113;-73
2023/08/22 10:20:05;;;;;;;6.78;2.67;;;;;;;30.62;46.11;100626.59;10400311;28;20195;-73
2023/08/22 10:25:07;;;;;;;5.25;2.38;;;;;;;30.63;46.49;100628.25;10403494;28;20404;-74
2023/08/22 10:30:14;;;;;;;4.97;1.95;;;;;;;30.92;46.25;100615.28;10404544;28;20056;-74
2023/08/22 10:35:15;;;;;;;3.75;1.88;;;;;;;31.32;45.35;100610.91;10399450;28;20046;-74
2023/08/22 10:40:29;;;;;;;3.88;1.48;;;;;;;31.74;44.50;100617.25;10412527;28;20104;-73
2023/08/22 10:45:50;;;;;;;3.72;1.95;;;;;;;32.38;44.05;100613.53;10407431;28;20061;-74
2023/08/22 10:50:52;;;;;;;7.38;3.08;;;;;;;33.13;42.15;100620.25;10409284;28;20053;-74
2023/08/22 10:55:55;;;;;;;3.97;2.97;;;;;;;33.83;41.09;100608.47;10409550;28;20285;-74
2023/08/22 11:00:56;;;;;;;3.80;1.70;;;;;;;34.24;39.71;100610.78;10406950;28;20362;-75
2023/08/22 11:05:59;;;;;;;4.10;2.72;;;;;;;34.27;39.19;100607.34;10406452;28;20065;-74
2023/08/22 11:11:00;;;;;;;8.88;1.92;;;;;;;34.44;38.31;100611.25;10403908;28;20445;-74
2023/08/22 11:16:02;;;;;;;6.45;1.85;;;;;;;34.24;39.08;100609.97;10409436;28;20112;-73
2023/08/22 11:21:04;;;;;;;4.05;1.60;;;;;;;34.07;39.01;100605.22;10405548;28;20068;-73
2023/08/22 11:26:09;;;;;;;6.13;1.88;;;;;;;33.94;39.08;100593.06;10407353;28;20444;-74
2023/08/22 11:31:16;;;;;;;8.27;2.42;;;;;;;33.77;38.33;100597.47;10403184;28;20338;-73
2023/08/22 11:36:18;;;;;;;2.22;1.40;;;;;;;33.66;38.48;100596.16;10410949;28;20045;-73
2023/08/22 11:41:20;;;;;;;7.80;2.15;;;;;;;33.42;38.04;100598.53;10408945;28;20057;-73
2023/08/22 11:46:22;;;;;;;4.40;1.30;;;;;;;33.38;38.88;100582.47;10406421;28;20254;-73
2023/08/22 11:51:24;;;;;;;2.65;1.80;;;;;;;33.71;37.68;100581.22;10404656;28;20069;-73
2023/08/22 11:56:26;;;;;;;3.67;2.08;;;;;;;33.91;38.61;100576.97;10404005;28;20108;-73
2023/08/22 12:01:27;;;;;;;3.22;1.40;;;;;;;34.08;37.27;100574.16;10411827;28;20069;-73
2023/08/22 12:06:29;;;;;;;5.57;1.67;;;;;;;34.42;36.43;100571.69;10407938;28;20054;-73
2023/08/22 12:11:30;;;;;;;3.95;1.38;;;;;;;34.32;36.18;100578.44;10398910;28;20061;-73
2023/08/22 12:16:32;;;;;;;3.80;1.30;;;;;;;34.51;35.03;100576.09;10405634;28;20073;-74
2023/08/22 12:21:33;;;;;;;2.72;1.35;;;;;;;34.04;36.20;100583.53;10402090;28;20049;-74
2023/08/22 12:26:34;;;;;;;5.53;1.75;;;;;;;33.56;36.45;100579.72;10402190;28;20060;-75
2023/08/22 12:31:36;;;;;;;1.85;1.25;;;;;;;33.22;37.07;100578.50;10407361;28;20288;-75
2023/08/22 12:36:38;;;;;;;2.90;1.40;;;;;;;32.96;36.87;100573.63;10404180;28;20342;-72
2023/08/22 12:41:39;;;;;;;5.90;1.20;;;;;;;32.68;37.28;100577.72;10399066;28;20038;-73
2023/08/22 12:46:41;;;;;;;4.80;1.23;;;;;;;32.67;37.70;100581.69;10402344;28;20322;-73
2023/08/22 12:51:42;;;;;;;5.40;1.20;;;;;;;32.42;37.72;100572.81;10400765;28;20049;-72
2023/08/22 12:56:44;;;;;;;3.58;1.60;;;;;;;32.52;37.48;100575.31;10399431;28;20081;-72
2023/08/22 13:01:45;;;;;;;6.35;2.28;;;;;;;33.01;37.32;100567.06;10403965;28;20073;-73
2023/08/22 13:06:47;;;;;;;5.13;1.20;;;;;;;33.13;36.97;100570.09;10399404;28;20046;-71
2023/08/22 13:11:48;;;;;;;1.60;1.40;;;;;;;33.19;36.44;100567.97;10399719;28;20145;-72
2023/08/22 13:16:49;;;;;;;3.45;1.88;;;;;;;32.99;36.37;100564.59;10401738;28;20316;-71
2023/08/22 13:21:51;;;;;;;3.42;1.33;;;;;;;33.16;36.58;100558.31;10401778;28;20049;-70
2023/08/22 13:26:52;;;;;;;5.00;1.83;;;;;;;33.19;36.10;100538.13;10401003;28;20112;-70
2023/08/22 13:31:54;;;;;;;2.05;1.30;;;;;;;33.80;35.41;100540.22;10400314;28;20077;-70
2023/08/22 13:36:55;;;;;;;2.58;1.10;;;;;;;34.24;34.68;100540.19;10405407;28;20116;-70
2023/08/22 13:41:57;;;;;;;2.05;1.00;;;;;;;34.70;34.48;100544.22;10403868;28;20287;-71
2023/08/22 13:46:59;;;;;;;2.83;1.30;;;;;;;34.79;33.69;100542.19;10401460;28;20045;-70
2023/08/22 13:52:00;;;;;;;2.33;1.10;;;;;;;35.06;33.27;100537.31;10409232;28;20052;-70
2023/08/22 13:57:02;;;;;;;3.45;1.30;;;;;;;35.14;33.29;100539.22;10400277;28;20089;-72
2023/08/22 14:02:04;;;;;;;1.58;1.20;;;;;;;35.60;32.83;100545.03;10403600;28;20065;-71
2023/08/22 14:07:06;;;;;;;6.38;0.95;;;;;;;36.04;31.86;100539.91;10397887;28;20073;-69
2023/08/22 14:12:08;;;;;;;2.10;0.70;;;;;;;36.28;31.25;100547.63;10410153;28;20038;-70
2023/08/22 14:17:09;;;;;;;2.00;0.63;;;;;;;35.78;31.70;100551.34;10412165;28;20148;-70
2023/08/22 14:22:11;;;;;;;1.35;0.82;;;;;;;35.75;31.51;100538.84;10408047;28;20038;-70
2023/08/22 14:27:12;;;;;;;4.38;0.88;;;;;;;35.94;30.71;100544.78;10408106;28;20037;-70
2023/08/22 14:32:13;;;;;;;2.60;0.80;;;;;;;35.55;31.12;100544.06;10412157;28;20041;-69
2023/08/22 14:37:15;;;;;;;3.40;0.60;;;;;;;35.72;30.71;100540.38;10410348;28;20227;-70
2023/08/22 14:42:23;;;;;;;2.03;0.90;;;;;;;34.86;31.74;100553.66;10407903;28;20045;-71
2023/08/22 14:47:24;;;;;;;2.50;0.80;;;;;;;34.35;32.11;100552.66;10408944;28;20057;-70
2023/08/22 14:52:26;;;;;;;1.00;0.70;;;;;;;33.91;32.77;100549.09;10411488;28;20048;-69
2023/08/22 14:57:27;;;;;;;2.38;0.60;;;;;;;33.88;31.78;100538.56;10408054;28;20110;-69
2023/08/22 15:02:29;;;;;;;3.53;1.08;;;;;;;33.84;31.75;100543.19;10412373;28;20087;-71
2023/08/22 15:07:30;;;;;;;2.65;0.73;;;;;;;33.65;32.62;100549.91;10408716;28;20073;-70
2023/08/22 15:12:31;;;;;;;1.83;0.70;;;;;;;33.56;32.20;100549.03;10404930;28;20069;-71
2023/08/22 15:17:33;;;;;;;3.53;0.70;;;;;;;33.40;32.50;100545.91;10407454;28;20053;-68
2023/08/22 15:22:34;;;;;;;0.95;0.60;;;;;;;33.11;33.46;100543.72;10402132;28;20033;-70
2023/08/22 15:27:36;;;;;;;4.15;0.80;;;;;;;33.09;33.52;100540.38;10405703;28;20104;-69
2023/08/22 15:32:37;;;;;;;6.90;2.25;;;;;;;33.28;33.64;100543.75;10401673;28;20369;-69
2023/08/22 15:37:38;;;;;;;3.63;0.70;;;;;;;33.28;33.55;100554.09;10408340;28;20286;-69
2023/08/22 15:42:40;;;;;;;1.38;0.70;;;;;;;33.26;33.24;100546.03;10413145;28;20320;-70
2023/08/22 15:47:41;;;;;;;2.63;0.85;;;;;;;33.08;33.38;100541.53;10400598;28;20057;-70
2023/08/22 15:52:42;;;;;;;4.05;0.70;;;;;;;33.30;32.82;100537.84;10402993;28;20357;-76
2023/08/22 15:57:44;;;;;;;1.42;0.60;;;;;;;33.29;32.95;100542.59;10402094;28;20096;-71
2023/08/22 16:02:46;;;;;;;1.33;0.70;;;;;;;33.22;32.98;100538.63;10403038;28;20042;-73
2023/08/22 16:07:47;;;;;;;1.50;0.60;;;;;;;33.39;32.53;100531.16;10408119;28;20050;-73
2023/08/22 16:12:49;;;;;;;3.03;0.50;;;;;;;32.95;33.61;100534.94;10410156;28;20066;-70
2023/08/22 16:17:50;;;;;;;1.58;0.50;;;;;;;32.48;33.62;100529.78;10410663;28;20041;-73
2023/08/22 16:22:52;;;;;;;2.22;0.50;;;;;;;32.45;34.12;100527.66;10409415;28;20042;-73
2023/08/22 16:27:53;;;;;;;2.00;0.52;;;;;;;32.03;34.38;100529.00;10407387;28;20050;-71
2023/08/22 16:32:55;;;;;;;2.45;0.90;;;;;;;32.01;35.15;100534.88;10408375;28;20049;-71
2023/08/22 16:37:56;;;;;;;1.90;0.90;;;;;;;32.22;34.79;100529.66;10407303;28;20844;-71
2023/08/22 16:42:59;;;;;;;1.48;0.70;;;;;;;32.07;34.98;100530.03;10410163;28;20045;-71
2023/08/22 16:48:00;;;;;;;3.13;1.08;;;;;;;31.98;35.47;100527.16;10406500;28;20052;-72
2023/08/22 16:53:03;;;;;;;4.88;1.15;;;;;;;32.21;35.25;100533.56;10405251;28;20045;-72
2023/08/22 16:58:05;;;;;;;2.92;0.65;;;;;;;32.16;35.28;100526.16;10417242;28;20120;-73
2023/08/22 17:03:07;;;;;;;3.05;0.70;;;;;;;31.89;35.90;100529.03;10410152;28;20038;-75
2023/08/22 17:08:11;;;;;;;1.60;0.70;;;;;;;31.71;36.29;100528.91;10414916;28;20045;-74
2023/08/22 17:13:13;;;;;;;2.15;0.85;;;;;;;31.73;36.28;100529.41;10398884;28;20054;-74
2023/08/22 17:18:14;;;;;;;2.45;0.60;;;;;;;31.66;36.52;100534.59;10403587;28;20042;-72
2023/08/22 17:23:16;;;;;;;3.08;0.60;;;;;;;31.55;36.73;100539.56;10398560;28;20044;-73
2023/08/22 17:28:17;;;;;;;2.10;0.65;;;;;;;31.32;37.02;100540.59;10400768;28;20121;-74
2023/08/22 17:33:18;;;;;;;7.18;1.00;;;;;;;31.28;37.44;100545.13;10399984;28;20358;-70
2023/08/22 17:38:20;;;;;;;3.28;0.70;;;;;;;31.08;37.67;100530.53;10407962;28;20105;-71
2023/08/22 17:43:22;;;;;;;4.00;0.80;;;;;;;30.89;37.94;100530.66;10402728;28;20105;-72
2023/08/22 17:48:23;;;;;;;0.93;0.63;;;;;;;30.64;37.83;100532.75;10404845;28;20061;-72
2023/08/22 17:53:26;;;;;;;2.95;0.70;;;;;;;30.43;38.40;100545.38;10407759;28;20052;-71
2023/08/22 17:58:27;;;;;;;3.65;0.90;;;;;;;30.20;39.22;100545.19;10408466;28;20057;-70
2023/08/22 18:03:29;;;;;;;3.38;0.80;;;;;;;30.03;38.91;100544.91;10407712;28;20046;-70
2023/08/22 18:08:31;;;;;;;3.35;0.93;;;;;;;29.72;40.01;100552.88;10420261;28;20046;-72
2023/08/22 18:13:32;;;;;;;2.97;1.00;;;;;;;29.57;40.29;100540.84;10405417;28;20334;-72
2023/08/22 18:18:37;;;;;;;5.28;0.93;;;;;;;29.35;40.80;100540.63;10411689;28;20045;-72
2023/08/22 18:23:40;;;;;;;2.53;0.85;;;;;;;29.21;41.07;100548.84;10405970;28;20033;-72
2023/08/22 18:28:41;;;;;;;4.82;1.00;;;;;;;28.97;40.99;100549.66;10411885;28;20054;-69
2023/08/22 18:33:43;;;;;;;4.60;1.13;;;;;;;28.78;41.74;100557.88;10413642;28;20090;-76
2023/08/22 18:38:45;;;;;;;2.13;1.02;;;;;;;28.63;42.00;100561.63;10413725;28;20053;-73
2023/08/22 18:43:48;;;;;;;7.25;1.33;;;;;;;28.54;41.80;100563.38;10412559;28;20034;-72
2023/08/22 18:48:49;;;;;;;5.93;1.73;;;;;;;28.48;42.21;100572.81;10412836;28;20101;-70
2023/08/22 18:53:51;;;;;;;3.20;1.67;;;;;;;28.43;42.75;100572.84;10411589;28;20073;-72
2023/08/22 18:58:53;;;;;;;6.15;2.17;;;;;;;28.34;42.70;100563.50;10409694;28;20057;-72
2023/08/22 19:03:54;;;;;;;5.43;1.70;;;;;;;28.23;43.25;100573.84;10415874;28;20117;-72
2023/08/22 19:08:56;;;;;;;1.98;1.30;;;;;;;27.97;43.43;100579.56;10436026;28;20071;-71
2023/08/22 19:13:57;;;;;;;1.95;1.40;;;;;;;27.72;44.14;100580.50;10439478;28;20045;-71
2023/08/22 19:18:59;;;;;;;2.35;1.45;;;;;;;27.65;43.62;100582.78;10415224;28;20049;-72
2023/08/22 19:24:00;;;;;;;3.75;1.67;;;;;;;27.46;43.81;100588.13;10434082;28;20057;-73
2023/08/22 19:29:02;;;;;;;3.63;1.10;;;;;;;27.35;44.20;100589.25;10445560;28;20354;-72
2023/08/22 19:34:03;;;;;;;5.07;1.10;;;;;;;27.22;44.21;100588.72;10423353;28;20065;-73
2023/08/22 19:39:05;;;;;;;2.10;1.20;;;;;;;27.18;44.16;100603.38;10408101;28;20120;-72
2023/08/22 19:44:07;;;;;;;1.95;1.00;;;;;;;27.03;44.51;100596.78;10440712;28;20109;-75
2023/08/22 19:49:10;;;;;;;4.10;1.58;;;;;;;26.99;44.97;100605.91;10447503;28;20300;-73
2023/08/22 19:54:12;;;;;;;3.38;1.30;;;;;;;26.91;45.01;100610.06;10447727;28;20049;-73
2023/08/22 19:59:13;;;;;;;3.10;1.08;;;;;;;26.81;44.96;100610.91;10449439;28;20057;-74
2023/08/22 20:04:15;;;;;;;1.83;1.20;;;;;;;26.58;45.55;100609.56;10448817;28;20368;-72
2023/08/22 20:09:17;;;;;;;4.93;1.55;;;;;;;26.57;45.30;100618.09;10444156;28;20056;-77
2023/08/22 20:14:18;;;;;;;8.23;1.65;;;;;;;26.42;46.14;100617.00;10450788;28;20132;-78
2023/08/22 20:19:19;;;;;;;2.13;1.40;;;;;;;26.30;46.12;100622.78;10445161;28;20041;-78
2023/08/22 20:24:21;;;;;;;4.03;1.70;;;;;;;26.24;46.42;100612.00;10444926;28;20037;-75
2023/08/22 20:29:22;;;;;;;3.80;1.63;;;;;;;26.26;46.79;100615.31;10442546;28;20072;-77
2023/08/22 20:34:26;;;;;;;4.85;2.53;;;;;;;26.15;47.42;100617.25;10442991;28;20273;-77
2023/08/22 20:39:28;;;;;;;3.40;1.90;;;;;;;26.08;48.19;100617.50;10445532;28;20056;-78
2023/08/22 20:44:29;;;;;;;5.65;2.38;;;;;;;26.00;48.24;100619.97;10441312;28;20546;-76
2023/08/22 20:49:31;;;;;;;4.28;1.85;;;;;;;25.87;48.18;100619.38;10447446;28;20064;-78
2023/08/22 20:54:32;;;;;;;5.50;2.67;;;;;;;25.77;48.57;100619.34;10446687;28;20067;-79
2023/08/22 20:59:34;;;;;;;4.78;1.85;;;;;;;25.68;48.40;100624.53;10428334;28;20100;-77
2023/08/22 21:04:35;;;;;;;3.92;2.00;;;;;;;25.64;49.32;100625.34;10408383;28;20045;-80
2023/08/22 21:09:37;;;;;;;7.60;2.30;;;;;;;25.51;49.62;100627.50;10404409;28;20046;-78
2023/08/22 21:14:38;;;;;;;2.75;1.80;;;;;;;25.40;49.53;100625.81;10406334;28;20110;-78
2023/08/22 21:19:40;;;;;;;3.53;2.08;;;;;;;25.31;50.21;100630.16;10405874;28;20041;-77
2023/08/22 21:24:43;;;;;;;7.53;3.42;;;;;;;25.19;50.42;100635.00;10411213;28;20235;-79
2023/08/22 21:29:45;;;;;;;7.22;2.72;;;;;;;25.09;50.08;100639.34;10411224;28;20358;-79
2023/08/22 21:34:46;;;;;;;5.75;2.63;;;;;;;25.00;50.76;100640.13;10410612;28;20052;-80
2023/08/22 21:39:48;;;;;;;7.43;2.30;;;;;;;24.94;50.93;100639.25;10403358;28;20117;-78
2023/08/22 21:44:49;;;;;;;5.85;2.25;;;;;;;24.91;50.96;100650.78;10403227;28;20041;-78
2023/08/22 21:49:54;;;;;;;5.65;2.75;;;;;;;24.85;50.97;100649.94;10399954;28;20112;-79
2023/08/22 21:54:55;;;;;;;7.15;2.83;;;;;;;24.81;51.02;100643.28;10404410;28;20069;-79
2023/08/22 21:59:57;;;;;;;3.08;2.33;;;;;;;24.73;51.34;100638.28;10403014;28;20456;-80
2023/08/22 22:04:58;;;;;;;4.85;2.58;;;;;;;24.70;51.74;100650.66;10404183;28;20057;-77
2023/08/22 22:10:00;;;;;;;4.65;2.90;;;;;;;24.64;51.68;100657.16;10401380;28;20238;-79
2023/08/22 22:15:02;;;;;;;8.52;3.83;;;;;;;24.53;52.41;100655.44;10401648;28;20072;-77
2023/08/22 22:20:04;;;;;;;7.40;3.53;;;;;;;24.24;52.83;100652.94;10401813;28;20053;-80
2023/08/22 22:25:06;;;;;;;4.97;3.83;;;;;;;24.20;52.81;100651.81;10401942;28;20061;-79
2023/08/22 22:30:08;;;;;;;4.32;3.25;;;;;;;24.20;52.97;100645.50;10404237;28;20046;-78
2023/08/22 22:35:10;;;;;;;4.88;3.65;;;;;;;24.12;53.44;100639.38;10407398;28;20038;-76
2023/08/22 22:40:11;;;;;;;5.90;3.75;;;;;;;23.93;54.05;100635.31;10405380;28;20045;-78
2023/08/22 22:45:13;;;;;;;6.80;3.75;;;;;;;23.69;54.34;100634.75;10410906;28;20139;-78
2023/08/22 22:50:14;;;;;;;6.82;3.58;;;;;;;23.70;54.29;100630.91;10411470;28;20042;-77
2023/08/22 22:55:16;;;;;;;9.55;3.65;;;;;;;23.71;54.35;100638.88;10411920;28;20061;-78
2023/08/22 23:00:17;;;;;;;7.22;3.72;;;;;;;23.67;54.60;100636.91;10409689;28;20065;-81
2023/08/22 23:05:19;;;;;;;6.43;4.07;;;;;;;23.65;54.54;100642.66;10409098;28;20064;-79